Time;durP1;ratioP1;P1;durP2;ratioP2;P2;SDS_P1;SDS_P2;PMS_P1;PMS_P2;Temp;Humidity;BMP_temperature;BMP_pressure;BME280_temperature;BME280_humidity;BME280_pressure;Samples;Min_cycle;Max_cycle;Signal;HPM_P1;HPM_P2
2023/07/03 00:02:22;;;;;;;6.50;2.63;;;;;;;;;;5013918;28;20448;-63
2023/07/03 00:04:47;;;;;;;6.45;2.97;;;;;;;;;;5013873;28;20120;-64
2023/07/03 00:07:16;;;;;;;9.20;3.10;;;;;;;;;;5013869;28;20037;-63
2023/07/03 00:09:42;;;;;;;7.75;3.35;;;;;;;;;;5013668;28;20050;-65
2023/07/03 00:12:09;;;;;;;11.65;3.08;;;;;;;;;;5013815;28;20022;-63
2023/07/03 00:14:35;;;;;;;15.77;3.47;;;;;;;;;;5013299;28;20434;-63
2023/07/03 00:17:00;;;;;;;9.05;3.42;;;;;;;;;;5013772;28;20026;-64
2023/07/03 00:19:30;;;;;;;11.45;3.05;;;;;;;;;;5013672;28;20026;-64
2023/07/03 00:22:00;;;;;;;8.20;2.80;;;;;;;;;;5013658;28;20032;-63
2023/07/03 00:24:26;;;;;;;6.82;3.13;;;;;;;;;;5013338;28;20036;-64
2023/07/03 00:26:51;;;;;;;7.10;2.95;;;;;;;;;;5013643;28;20033;-62
2023/07/03 00:29:17;;;;;;;9.15;2.92;;;;;;;;;;5013519;28;20032;-63
2023/07/03 00:31:42;;;;;;;7.85;3.40;;;;;;;;;;5013622;28;20201;-68
2023/07/03 00:34:07;;;;;;;10.02;3.17;;;;;;;;;;5013539;28;20518;-64
2023/07/03 00:36:33;;;;;;;8.95;3.63;;;;;;;;;;5013354;28;20030;-63
2023/07/03 00:38:59;;;;;;;6.57;3.05;;;;;;;;;;4995504;28;20025;-63
2023/07/03 00:41:26;;;;;;;11.35;3.20;;;;;;;;;;5013209;28;20026;-63
2023/07/03 00:43:52;;;;;;;11.30;3.38;;;;;;;;;;5013190;28;20457;-63
2023/07/03 00:46:18;;;;;;;10.48;3.60;;;;;;;;;;4995601;28;20022;-64
2023/07/03 00:48:45;;;;;;;6.78;3.33;;;;;;;;;;5013236;28;20379;-64
2023/07/03 00:51:12;;;;;;;6.68;3.03;;;;;;;;;;5013031;28;20474;-63
2023/07/03 00:53:38;;;;;;;8.05;2.97;;;;;;;;;;5013206;28;20026;-65
2023/07/03 00:56:04;;;;;;;7.93;3.25;;;;;;;;;;5013183;28;20105;-63
2023/07/03 00:58:29;;;;;;;9.82;3.47;;;;;;;;;;5013078;28;20033;-63
2023/07/03 01:01:06;;;;;;;6.28;3.45;;;;;;;;;;5013037;28;20467;-63
2023/07/03 01:03:40;;;;;;;7.90;3.25;;;;;;;;;;5013019;28;20073;-63
2023/07/03 01:06:11;;;;;;;10.32;3.55;;;;;;;;;;5013107;28;20022;-63
2023/07/03 01:08:39;;;;;;;9.70;3.20;;;;;;;;;;5012946;28;20030;-64
2023/07/03 01:11:06;;;;;;;6.57;3.03;;;;;;;;;;5013133;28;20470;-63
2023/07/03 01:13:33;;;;;;;4.78;2.95;;;;;;;;;;5013125;28;20487;-63
2023/07/03 01:16:00;;;;;;;7.13;3.17;;;;;;;;;;5013121;28;20026;-65
2023/07/03 01:18:27;;;;;;;8.43;3.08;;;;;;;;;;5012930;28;20416;-63
2023/07/03 01:21:09;;;;;;;7.47;3.30;;;;;;;;;;5012955;28;20068;-63
2023/07/03 01:24:13;;;;;;;7.70;3.53;;;;;;;;;;5012732;28;20100;-63
2023/07/03 01:26:41;;;;;;;8.55;3.40;;;;;;;;;;4998893;28;20046;-62
2023/07/03 01:29:08;;;;;;;10.55;3.35;;;;;;;;;;5012923;28;20026;-63
2023/07/03 01:31:36;;;;;;;9.50;3.35;;;;;;;;;;5012881;28;20058;-62
2023/07/03 01:34:03;;;;;;;7.57;4.03;;;;;;;;;;5012961;28;20120;-63
2023/07/03 01:36:31;;;;;;;8.32;3.20;;;;;;;;;;5012564;28;20030;-63
2023/07/03 01:38:58;;;;;;;8.27;3.72;;;;;;;;;;5012647;28;20038;-63
2023/07/03 01:41:24;;;;;;;12.30;3.55;;;;;;;;;;5012704;28;20037;-63
2023/07/03 01:43:50;;;;;;;11.20;3.53;;;;;;;;;;5012604;28;20405;-63
2023/07/03 01:46:16;;;;;;;8.65;3.45;;;;;;;;;;5012744;28;20018;-63
2023/07/03 01:48:42;;;;;;;10.95;3.60;;;;;;;;;;5012690;28;20022;-64
2023/07/03 01:51:11;;;;;;;6.70;2.97;;;;;;;;;;5012493;28;20371;-62
2023/07/03 01:53:54;;;;;;;8.07;3.50;;;;;;;;;;5012681;28;20111;-63
2023/07/03 01:56:28;;;;;;;8.95;3.35;;;;;;;;;;5012522;28;20057;-62
2023/07/03 01:59:06;;;;;;;8.13;3.50;;;;;;;;;;5012721;28;20446;-63
2023/07/03 02:01:41;;;;;;;9.20;3.80;;;;;;;;;;5012640;28;20494;-63
2023/07/03 02:04:42;;;;;;;7.97;3.35;;;;;;;;;;4994940;28;20057;-63
2023/07/03 02:07:10;;;;;;;7.97;3.53;;;;;;;;;;5011065;28;20132;-64
2023/07/03 02:09:36;;;;;;;10.20;3.50;;;;;;;;;;5012498;28;20092;-63
2023/07/03 02:12:05;;;;;;;12.45;4.10;;;;;;;;;;5012467;28;20117;-62
2023/07/03 02:14:34;;;;;;;8.10;3.67;;;;;;;;;;5012405;28;20049;-63
2023/07/03 02:17:01;;;;;;;7.90;3.35;;;;;;;;;;5012482;28;20025;-63
2023/07/03 02:19:28;;;;;;;11.27;4.03;;;;;;;;;;5012345;28;20029;-63
2023/07/03 02:21:57;;;;;;;8.68;3.63;;;;;;;;;;5012072;28;20117;-62
2023/07/03 02:24:23;;;;;;;7.85;3.67;;;;;;;;;;5012337;28;20068;-64
2023/07/03 02:26:50;;;;;;;9.45;3.97;;;;;;;;;;5012263;28;20030;-63
2023/07/03 02:29:15;;;;;;;9.65;3.55;;;;;;;;;;5012294;28;20030;-63
2023/07/03 02:31:41;;;;;;;7.22;3.85;;;;;;;;;;5012208;28;20030;-63
2023/07/03 02:34:06;;;;;;;11.05;3.90;;;;;;;;;;5012073;28;20033;-63
2023/07/03 02:36:39;;;;;;;7.10;3.38;;;;;;;;;;5012323;28;20609;-63
2023/07/03 02:39:06;;;;;;;10.90;3.78;;;;;;;;;;5014220;28;20105;-62
2023/07/03 02:41:33;;;;;;;8.50;3.63;;;;;;;;;;5015543;28;20057;-63
2023/07/03 02:43:59;;;;;;;11.18;3.90;;;;;;;;;;5015419;28;20037;-63
2023/07/03 02:46:24;;;;;;;8.45;3.78;;;;;;;;;;5015399;28;20429;-65
2023/07/03 02:48:50;;;;;;;8.13;3.92;;;;;;;;;;5015282;28;20022;-63
2023/07/03 02:51:15;;;;;;;8.98;3.65;;;;;;;;;;5015639;28;20030;-63
2023/07/03 02:53:42;;;;;;;8.95;3.97;;;;;;;;;;5015506;28;20032;-63
2023/07/03 02:56:08;;;;;;;7.93;4.10;;;;;;;;;;5015344;28;20025;-63
2023/07/03 02:58:34;;;;;;;7.95;3.70;;;;;;;;;;5015237;28;20036;-64
2023/07/03 03:01:01;;;;;;;10.10;3.65;;;;;;;;;;5015329;28;20378;-63
2023/07/03 03:03:30;;;;;;;11.05;3.92;;;;;;;;;;5015046;28;20069;-63
2023/07/03 03:05:56;;;;;;;9.23;3.67;;;;;;;;;;5015261;28;20026;-64
2023/07/03 03:08:25;;;;;;;10.43;3.58;;;;;;;;;;5015143;28;20038;-63
2023/07/03 03:10:51;;;;;;;10.52;3.70;;;;;;;;;;5015213;28;20029;-63
2023/07/03 03:13:17;;;;;;;7.40;3.40;;;;;;;;;;5015030;28;20026;-64
2023/07/03 03:15:43;;;;;;;9.18;3.40;;;;;;;;;;5015233;28;20034;-63
2023/07/03 03:18:09;;;;;;;7.70;3.55;;;;;;;;;;5014879;28;20057;-64
2023/07/03 03:20:34;;;;;;;7.40;3.53;;;;;;;;;;5014846;28;20034;-63
2023/07/03 03:22:59;;;;;;;9.45;3.65;;;;;;;;;;5014918;28;20384;-63
2023/07/03 03:25:25;;;;;;;7.82;3.63;;;;;;;;;;5014867;28;20026;-63
2023/07/03 03:27:51;;;;;;;8.68;3.60;;;;;;;;;;5014868;28;20021;-64
2023/07/03 03:30:16;;;;;;;10.95;3.92;;;;;;;;;;5014804;28;20156;-63
2023/07/03 03:32:42;;;;;;;9.32;5.47;;;;;;;;;;5014505;28;20022;-63
2023/07/03 03:35:08;;;;;;;8.00;3.35;;;;;;;;;;5014605;28;20026;-65
2023/07/03 03:37:33;;;;;;;9.27;3.92;;;;;;;;;;5014658;28;20382;-65
2023/07/03 03:39:59;;;;;;;10.52;3.55;;;;;;;;;;5014331;28;20034;-64
2023/07/03 03:42:24;;;;;;;10.18;3.83;;;;;;;;;;5014531;28;20049;-63
2023/07/03 03:44:50;;;;;;;7.05;3.35;;;;;;;;;;5014484;28;20045;-64
2023/07/03 03:47:15;;;;;;;6.53;3.17;;;;;;;;;;5014342;28;20021;-63
2023/07/03 03:49:41;;;;;;;7.95;3.72;;;;;;;;;;5013658;28;20494;-63
2023/07/03 03:52:06;;;;;;;7.53;3.30;;;;;;;;;;5014453;28;20069;-63
2023/07/03 03:54:32;;;;;;;14.35;3.55;;;;;;;;;;4996537;28;20021;-63
2023/07/03 03:56:57;;;;;;;8.65;3.45;;;;;;;;;;5014146;28;20459;-62
2023/07/03 03:59:23;;;;;;;8.43;3.45;;;;;;;;;;5014128;28;20108;-63
2023/07/03 04:01:49;;;;;;;6.53;3.05;;;;;;;;;;5014078;28;20032;-63
2023/07/03 04:04:15;;;;;;;9.63;3.17;;;;;;;;;;5014144;28;20431;-64
2023/07/03 04:06:40;;;;;;;10.07;3.53;;;;;;;;;;5014241;28;20026;-63
2023/07/03 04:09:07;;;;;;;10.23;3.97;;;;;;;;;;5014116;28;20052;-63
2023/07/03 04:11:36;;;;;;;8.05;3.03;;;;;;;;;;5013693;28;20033;-64
2023/07/03 04:14:01;;;;;;;6.63;3.17;;;;;;;;;;5014150;28;20161;-63
2023/07/03 04:16:29;;;;;;;8.05;3.45;;;;;;;;;;5013636;28;20069;-64
2023/07/03 04:18:55;;;;;;;7.60;3.25;;;;;;;;;;5014023;28;20399;-63
2023/07/03 04:21:20;;;;;;;8.02;3.58;;;;;;;;;;5013860;28;20025;-63
2023/07/03 04:23:47;;;;;;;10.23;3.83;;;;;;;;;;5013845;28;20073;-63
2023/07/03 04:26:12;;;;;;;8.82;3.60;;;;;;;;;;5013757;28;20072;-63
2023/07/03 04:28:38;;;;;;;7.10;3.83;;;;;;;;;;5013804;28;20101;-63
2023/07/03 04:31:03;;;;;;;9.10;3.40;;;;;;;;;;5013567;28;20033;-63
2023/07/03 04:33:29;;;;;;;8.80;3.55;;;;;;;;;;5013975;28;20026;-62
2023/07/03 04:35:54;;;;;;;6.85;3.33;;;;;;;;;;5013821;28;20025;-62
2023/07/03 04:38:23;;;;;;;10.90;3.53;;;;;;;;;;5013478;28;20076;-62
2023/07/03 04:40:51;;;;;;;7.10;3.30;;;;;;;;;;5013268;28;20478;-63
2023/07/03 04:43:16;;;;;;;7.85;3.63;;;;;;;;;;5013518;28;20437;-63
2023/07/03 04:45:45;;;;;;;8.05;3.45;;;;;;;;;;5013357;28;20030;-63
2023/07/03 04:48:11;;;;;;;7.93;3.13;;;;;;;;;;5013573;28;20108;-63
2023/07/03 04:50:36;;;;;;;10.38;3.30;;;;;;;;;;5013494;28;20435;-63
2023/07/03 04:53:03;;;;;;;12.13;4.07;;;;;;;;;;5013282;28;20478;-63
2023/07/03 04:55:30;;;;;;;7.90;3.08;;;;;;;;;;5013255;28;20033;-62
2023/07/03 04:57:57;;;;;;;8.10;3.50;;;;;;;;;;5013470;28;20030;-63
2023/07/03 05:00:23;;;;;;;13.48;3.80;;;;;;;;;;5012949;28;20112;-62
2023/07/03 05:02:51;;;;;;;9.05;3.50;;;;;;;;;;5013149;28;20033;-63
2023/07/03 05:05:18;;;;;;;7.90;3.30;;;;;;;;;;5013140;28;20034;-63
2023/07/03 05:07:45;;;;;;;9.10;3.53;;;;;;;;;;5013167;28;20052;-63
2023/07/03 05:10:12;;;;;;;11.32;3.63;;;;;;;;;;5013223;28;20022;-63
2023/07/03 05:12:38;;;;;;;9.82;3.22;;;;;;;;;;5012982;28;20034;-63
2023/07/03 05:15:07;;;;;;;10.10;3.97;;;;;;;;;;5012697;28;20033;-63
2023/07/03 05:17:34;;;;;;;12.43;3.50;;;;;;;;;;5012966;28;20042;-64
2023/07/03 05:20:01;;;;;;;7.97;3.47;;;;;;;;;;5012822;28;20033;-64
2023/07/03 05:22:27;;;;;;;7.20;3.35;;;;;;;;;;5012837;28;20030;-63
2023/07/03 05:24:52;;;;;;;8.75;3.90;;;;;;;;;;5012857;28;20022;-64
2023/07/03 05:27:18;;;;;;;6.70;3.20;;;;;;;;;;5012903;28;20030;-63
2023/07/03 05:29:43;;;;;;;9.95;3.63;;;;;;;;;;5012509;28;20030;-63
2023/07/03 05:32:10;;;;;;;8.80;3.58;;;;;;;;;;5012879;28;20022;-63
2023/07/03 05:34:38;;;;;;;6.80;3.15;;;;;;;;;;5012685;28;20460;-63
2023/07/03 05:37:05;;;;;;;11.48;3.67;;;;;;;;;;5012733;28;20034;-63
2023/07/03 05:39:30;;;;;;;7.68;3.28;;;;;;;;;;5012419;28;20030;-63
2023/07/03 05:41:55;;;;;;;12.02;3.67;;;;;;;;;;5012368;28;20080;-62
2023/07/03 05:44:22;;;;;;;7.03;3.50;;;;;;;;;;5012159;28;20100;-63
2023/07/03 05:46:47;;;;;;;8.40;3.20;;;;;;;;;;5012649;28;20029;-63
2023/07/03 05:49:12;;;;;;;9.75;4.00;;;;;;;;;;5012592;28;20022;-63
2023/07/03 05:51:38;;;;;;;10.13;4.10;;;;;;;;;;5012725;28;20026;-64
2023/07/03 05:54:04;;;;;;;8.95;3.67;;;;;;;;;;5012513;28;20030;-63
2023/07/03 05:56:29;;;;;;;6.10;3.00;;;;;;;;;;5012502;28;20124;-63
2023/07/03 05:58:55;;;;;;;8.27;3.80;;;;;;;;;;5012397;28;20395;-63
2023/07/03 06:01:20;;;;;;;10.57;3.75;;;;;;;;;;5010341;28;20108;-63
2023/07/03 06:03:47;;;;;;;9.80;3.65;;;;;;;;;;5011739;28;20443;-63
2023/07/03 06:06:13;;;;;;;9.48;3.60;;;;;;;;;;5009532;28;20369;-63
2023/07/03 06:08:40;;;;;;;10.10;4.05;;;;;;;;;;5012152;28;20032;-65
2023/07/03 06:11:05;;;;;;;6.57;3.30;;;;;;;;;;5012148;28;20080;-64
2023/07/03 06:13:31;;;;;;;7.32;3.80;;;;;;;;;;5011151;28;20034;-64
2023/07/03 06:15:56;;;;;;;6.80;3.20;;;;;;;;;;5015644;28;20032;-64
2023/07/03 06:18:22;;;;;;;10.70;3.38;;;;;;;;;;5015885;28;20022;-66
2023/07/03 06:20:48;;;;;;;10.18;3.55;;;;;;;;;;5015348;28;20033;-66
2023/07/03 06:23:13;;;;;;;11.35;3.50;;;;;;;;;;5015796;28;20122;-65
2023/07/03 06:25:40;;;;;;;8.48;3.53;;;;;;;;;;5015977;28;20137;-64
2023/07/03 06:28:05;;;;;;;9.85;3.55;;;;;;;;;;5015787;28;20022;-65
2023/07/03 06:30:31;;;;;;;7.85;3.60;;;;;;;;;;5015783;28;20595;-64
2023/07/03 06:32:56;;;;;;;12.23;4.00;;;;;;;;;;5015667;28;20442;-64
2023/07/03 06:35:21;;;;;;;8.45;3.75;;;;;;;;;;5015873;28;20033;-64
2023/07/03 06:37:47;;;;;;;10.75;3.75;;;;;;;;;;5014327;28;20025;-64
2023/07/03 06:40:15;;;;;;;7.03;3.20;;;;;;;;;;5008860;28;20202;-64
2023/07/03 06:42:41;;;;;;;9.10;3.42;;;;;;;;;;5004069;28;20430;-64
2023/07/03 06:45:07;;;;;;;8.30;3.22;;;;;;;;;;5015197;28;20030;-64
2023/07/03 06:47:33;;;;;;;14.27;3.70;;;;;;;;;;5015243;28;20076;-63
2023/07/03 06:49:58;;;;;;;9.38;4.32;;;;;;;;;;5015432;28;20443;-65
2023/07/03 06:52:23;;;;;;;8.38;3.97;;;;;;;;;;5015230;28;20028;-63
2023/07/03 06:54:49;;;;;;;18.42;4.50;;;;;;;;;;5014975;28;20014;-64
2023/07/03 06:57:14;;;;;;;11.20;3.33;;;;;;;;;;5014957;28;20066;-64
2023/07/03 06:59:40;;;;;;;11.15;3.60;;;;;;;;;;5015046;28;20125;-64
2023/07/03 07:02:06;;;;;;;9.50;3.35;;;;;;;;;;5015123;28;20447;-64
2023/07/03 07:04:32;;;;;;;7.82;3.40;;;;;;;;;;5014886;28;20079;-62
2023/07/03 07:06:58;;;;;;;7.80;3.75;;;;;;;;;;5014984;28;20104;-63
2023/07/03 07:09:23;;;;;;;8.60;3.67;;;;;;;;;;5014654;28;20391;-64
2023/07/03 07:11:49;;;;;;;11.45;3.90;;;;;;;;;;5014578;28;20033;-62
2023/07/03 07:14:14;;;;;;;7.45;3.42;;;;;;;;;;5014882;28;20029;-63
2023/07/03 07:16:42;;;;;;;9.65;3.92;;;;;;;;;;4997140;28;20022;-63
2023/07/03 07:19:10;;;;;;;11.77;4.32;;;;;;;;;;5014331;28;20033;-63
2023/07/03 07:21:43;;;;;;;9.95;3.60;;;;;;;;;;5014678;28;20029;-63
2023/07/03 07:24:24;;;;;;;10.68;3.90;;;;;;;;;;5024096;28;20105;-63
2023/07/03 07:26:54;;;;;;;8.93;3.40;;;;;;;;;;5024046;28;20025;-63
2023/07/03 07:29:20;;;;;;;10.25;3.53;;;;;;;;;;5021666;28;20022;-63
2023/07/03 07:31:45;;;;;;;10.43;3.90;;;;;;;;;;5023436;28;20025;-63
2023/07/03 07:34:12;;;;;;;8.43;3.75;;;;;;;;;;5024935;28;20052;-63
2023/07/03 07:36:39;;;;;;;10.13;4.03;;;;;;;;;;5023180;28;20018;-63
2023/07/03 07:39:04;;;;;;;9.70;4.05;;;;;;;;;;5005584;28;20034;-63
2023/07/03 07:41:31;;;;;;;9.57;4.07;;;;;;;;;;5023133;28;20471;-62
2023/07/03 07:43:58;;;;;;;9.98;3.92;;;;;;;;;;4998280;28;20046;-62
2023/07/03 07:46:29;;;;;;;9.18;3.80;;;;;;;;;;5000045;28;20021;-61
2023/07/03 07:48:56;;;;;;;9.23;4.25;;;;;;;;;;5014331;28;20052;-62
2023/07/03 07:51:22;;;;;;;12.43;4.65;;;;;;;;;;5014188;28;20069;-62
2023/07/03 07:53:48;;;;;;;11.70;3.90;;;;;;;;;;5016477;28;20030;-62
2023/07/03 07:56:13;;;;;;;10.57;3.83;;;;;;;;;;5021854;28;20025;-62
2023/07/03 07:58:39;;;;;;;8.23;3.55;;;;;;;;;;5023708;28;20399;-62
2023/07/03 08:01:05;;;;;;;8.50;3.50;;;;;;;;;;5022580;28;20044;-62
2023/07/03 08:03:30;;;;;;;12.52;3.10;;;;;;;;;;5019537;28;20026;-62
2023/07/03 08:06:00;;;;;;;9.15;3.88;;;;;;;;;;5023644;28;20035;-62
2023/07/03 08:08:27;;;;;;;8.65;3.92;;;;;;;;;;5021387;28;20379;-62
2023/07/03 08:10:57;;;;;;;8.70;3.30;;;;;;;;;;5023929;28;20083;-62
2023/07/03 08:13:24;;;;;;;13.15;3.85;;;;;;;;;;5023666;28;20082;-62
2023/07/03 08:15:49;;;;;;;8.00;3.30;;;;;;;;;;5030606;28;20116;-62
2023/07/03 08:18:16;;;;;;;9.18;3.55;;;;;;;;;;5033431;28;20068;-63
2023/07/03 08:20:42;;;;;;;9.93;3.92;;;;;;;;;;5022184;28;20499;-62
2023/07/03 08:23:08;;;;;;;10.00;3.30;;;;;;;;;;5013334;28;20541;-62
2023/07/03 08:25:34;;;;;;;10.50;3.78;;;;;;;;;;5010817;28;20030;-62
2023/07/03 08:27:59;;;;;;;7.90;3.38;;;;;;;;;;5013267;28;20033;-62
2023/07/03 08:30:25;;;;;;;7.25;3.03;;;;;;;;;;5013150;28;20497;-62
2023/07/03 08:32:50;;;;;;;8.57;3.47;;;;;;;;;;5013220;28;20025;-62
2023/07/03 08:35:19;;;;;;;7.15;3.20;;;;;;;;;;5013024;28;20105;-63
2023/07/03 08:37:44;;;;;;;9.05;2.95;;;;;;;;;;5012459;28;20030;-62
2023/07/03 08:40:15;;;;;;;9.52;3.40;;;;;;;;;;5012985;28;20044;-62
2023/07/03 08:42:46;;;;;;;6.63;2.90;;;;;;;;;;5013163;28;20045;-62
2023/07/03 08:45:14;;;;;;;6.10;2.92;;;;;;;;;;5012993;28;20076;-62
2023/07/03 08:47:41;;;;;;;11.90;3.30;;;;;;;;;;5012851;28;20018;-63
2023/07/03 08:50:07;;;;;;;8.77;3.08;;;;;;;;;;5013195;28;20030;-62
2023/07/03 08:52:43;;;;;;;8.82;2.95;;;;;;;;;;5010433;28;20018;-62
2023/07/03 08:55:14;;;;;;;6.95;2.90;;;;;;;;;;5012399;28;20029;-62
2023/07/03 08:57:39;;;;;;;10.00;2.80;;;;;;;;;;5012771;28;20025;-62
2023/07/03 09:00:11;;;;;;;6.78;2.40;;;;;;;;;;4995083;28;20030;-62
2023/07/03 09:02:59;;;;;;;7.50;2.65;;;;;;;;;;5012949;28;20030;-62
2023/07/03 09:06:03;;;;;;;8.88;2.47;;;;;;;;;;5012808;28;20026;-63
2023/07/03 09:08:56;;;;;;;6.18;2.53;;;;;;;;;;5012333;28;20025;-61
2023/07/03 09:11:24;;;;;;;6.45;2.85;;;;;;;;;;5011510;28;20022;-63
2023/07/03 09:13:54;;;;;;;7.25;2.38;;;;;;;;;;5012518;28;20032;-62
2023/07/03 09:16:22;;;;;;;6.70;2.42;;;;;;;;;;5012651;28;20020;-62
2023/07/03 09:19:15;;;;;;;8.73;2.67;;;;;;;;;;5012511;28;20038;-62
2023/07/03 09:21:42;;;;;;;5.80;2.20;;;;;;;;;;5009740;28;20037;-62
2023/07/03 09:24:28;;;;;;;7.93;2.20;;;;;;;;;;5009330;28;20024;-62
2023/07/03 09:27:04;;;;;;;7.70;3.00;;;;;;;;;;5009669;28;20108;-62
2023/07/03 09:29:32;;;;;;;9.93;2.80;;;;;;;;;;5011689;28;20388;-62
2023/07/03 09:31:57;;;;;;;9.43;3.17;;;;;;;;;;5009743;28;20115;-62
2023/07/03 09:34:24;;;;;;;10.73;2.83;;;;;;;;;;5011772;28;20057;-62
2023/07/03 09:37:00;;;;;;;9.95;2.80;;;;;;;;;;5011928;28;20453;-62
2023/07/03 09:39:25;;;;;;;9.93;3.13;;;;;;;;;;5009262;28;20353;-62
2023/07/03 09:41:53;;;;;;;6.82;2.47;;;;;;;;;;5009194;28;20040;-62
2023/07/03 09:44:21;;;;;;;7.72;2.83;;;;;;;;;;5011742;28;20041;-62
2023/07/03 09:46:47;;;;;;;6.80;2.60;;;;;;;;;;5001114;28;20030;-62
2023/07/03 09:49:28;;;;;;;6.68;2.72;;;;;;;;;;5014639;28;20037;-62
2023/07/03 09:51:57;;;;;;;9.00;2.35;;;;;;;;;;5016340;28;20034;-62
2023/07/03 09:54:26;;;;;;;10.25;2.78;;;;;;;;;;5016043;28;20026;-62
2023/07/03 09:56:52;;;;;;;7.65;2.47;;;;;;;;;;5016322;28;20030;-62
2023/07/03 09:59:20;;;;;;;8.55;2.60;;;;;;;;;;5016074;28;20037;-62
2023/07/03 10:01:47;;;;;;;8.95;2.60;;;;;;;;;;5016147;28;20069;-61
2023/07/03 10:04:16;;;;;;;7.85;2.40;;;;;;;;;;5015926;28;20022;-61
2023/07/03 10:07:04;;;;;;;11.90;2.95;;;;;;;;;;5016261;28;20037;-63
2023/07/03 10:09:33;;;;;;;10.18;2.95;;;;;;;;;;5015560;28;20034;-62
2023/07/03 10:12:10;;;;;;;8.93;2.93;;;;;;;;;;5016085;28;20073;-62
2023/07/03 10:14:44;;;;;;;6.50;2.50;;;;;;;;;;5016008;28;20342;-61
2023/07/03 10:17:12;;;;;;;6.57;2.97;;;;;;;;;;5015939;28;20036;-61
2023/07/03 10:19:53;;;;;;;5.75;2.45;;;;;;;;;;5015400;28;20356;-61
2023/07/03 10:22:19;;;;;;;10.45;3.20;;;;;;;;;;5016149;28;20037;-61
2023/07/03 10:24:47;;;;;;;8.10;2.63;;;;;;;;;;5015838;28;20030;-61
2023/07/03 10:27:14;;;;;;;8.93;3.22;;;;;;;;;;5015706;28;20087;-61
2023/07/03 10:29:46;;;;;;;8.52;2.95;;;;;;;;;;5015643;28;20498;-61
2023/07/03 10:32:15;;;;;;;9.60;3.20;;;;;;;;;;5015799;28;20406;-62
2023/07/03 10:35:07;;;;;;;6.35;2.45;;;;;;;;;;5015564;28;20080;-62
2023/07/03 10:37:43;;;;;;;10.07;2.97;;;;;;;;;;5013344;28;20169;-61
2023/07/03 10:40:19;;;;;;;9.52;2.50;;;;;;;;;;5015430;28;20487;-62
2023/07/03 10:42:59;;;;;;;8.48;3.20;;;;;;;;;;5015541;28;20050;-61
2023/07/03 10:45:26;;;;;;;6.70;2.03;;;;;;;;;;5015536;28;20041;-62
2023/07/03 10:48:07;;;;;;;6.60;2.70;;;;;;;;;;4997797;28;20030;-61
2023/07/03 10:50:38;;;;;;;7.47;2.65;;;;;;;;;;4995837;28;20030;-62
2023/07/03 10:53:25;;;;;;;6.63;2.30;;;;;;;;;;5011340;28;20101;-61
2023/07/03 10:56:24;;;;;;;10.85;2.67;;;;;;;;;;5014965;28;20092;-61
2023/07/03 10:59:00;;;;;;;8.02;2.47;;;;;;;;;;5014617;28;20045;-62
2023/07/03 11:01:34;;;;;;;5.57;2.20;;;;;;;;;;5015128;28;20030;-61
2023/07/03 11:03:59;;;;;;;6.75;2.50;;;;;;;;;;5015162;28;20557;-62
2023/07/03 11:06:53;;;;;;;7.47;2.65;;;;;;;;;;5014970;28;20065;-61
2023/07/03 11:09:18;;;;;;;6.80;2.60;;;;;;;;;;5014923;28;20032;-61
2023/07/03 11:12:02;;;;;;;11.23;2.92;;;;;;;;;;5014758;28;20033;-62
2023/07/03 11:14:57;;;;;;;6.32;2.38;;;;;;;;;;5014739;28;20108;-62
2023/07/03 11:17:48;;;;;;;8.10;2.33;;;;;;;;;;5014609;28;20037;-61
2023/07/03 11:20:35;;;;;;;7.85;2.63;;;;;;;;;;5014610;28;20026;-61
2023/07/03 11:23:16;;;;;;;5.38;2.50;;;;;;;;;;5014916;28;20475;-62
2023/07/03 11:25:58;;;;;;;5.80;1.98;;;;;;;;;;5014567;28;20490;-63
2023/07/03 11:28:23;;;;;;;7.10;2.75;;;;;;;;;;4997259;28;20030;-62
2023/07/03 11:30:49;;;;;;;6.78;2.40;;;;;;;;;;5014496;28;20038;-63
2023/07/03 11:33:16;;;;;;;6.30;2.00;;;;;;;;;;5014482;28;20105;-62
2023/07/03 11:35:56;;;;;;;6.15;2.30;;;;;;;;;;5014308;28;20445;-63
2023/07/03 11:38:21;;;;;;;;;;;;;;;;;;5014980;28;20068;-63
2023/07/03 11:40:53;;;;;;;8.05;2.55;;;;;;;;;;5014267;28;19960;-63
2023/07/03 11:43:38;;;;;;;7.80;2.45;;;;;;;;;;5014174;28;20123;-62
2023/07/03 11:46:07;;;;;;;12.48;5.10;;;;;;;;;;5011586;28;20044;-63
2023/07/03 11:48:39;;;;;;;18.23;6.50;;;;;;;;;;4994757;28;20030;-62
2023/07/03 11:51:06;;;;;;;8.77;3.67;;;;;;;;;;4994464;28;20030;-62
2023/07/03 11:53:35;;;;;;;6.95;2.25;;;;;;;;;;4994572;28;20054;-63
2023/07/03 11:56:02;;;;;;;20.30;7.18;;;;;;;;;;5009680;28;20047;-63
2023/07/03 11:58:30;;;;;;;10.38;4.47;;;;;;;;;;5014224;28;20034;-63
2023/07/03 12:01:20;;;;;;;20.05;9.02;;;;;;;;;;5013826;28;20030;-64
2023/07/03 12:03:49;;;;;;;;;;;;;;;;;;4996558;28;20125;-62
2023/07/03 12:06:40;;;;;;;11.55;4.60;;;;;;;;;;5013955;28;19963;-63
2023/07/03 12:09:21;;;;;;;14.30;5.32;;;;;;;;;;5010640;28;20034;-62
2023/07/03 12:12:06;;;;;;;10.82;4.28;;;;;;;;;;5013172;28;20116;-64
2023/07/03 12:14:46;;;;;;;9.10;3.17;;;;;;;;;;4995978;28;20388;-62
2023/07/03 12:17:20;;;;;;;12.27;3.85;;;;;;;;;;5013795;28;20022;-63
2023/07/03 12:19:47;;;;;;;10.70;3.53;;;;;;;;;;5013440;28;20474;-65
2023/07/03 12:22:19;;;;;;;8.32;2.53;;;;;;;;;;5013589;28;20053;-63
2023/07/03 12:24:45;;;;;;;12.25;2.97;;;;;;;;;;5013583;28;20421;-64
2023/07/03 12:27:11;;;;;;;11.82;3.15;;;;;;;;;;5013408;28;20022;-62
2023/07/03 12:29:45;;;;;;;10.43;3.00;;;;;;;;;;5013016;28;20034;-63
2023/07/03 12:32:11;;;;;;;10.07;3.03;;;;;;;;;;5013372;28;20101;-62
2023/07/03 12:34:41;;;;;;;6.97;2.60;;;;;;;;;;5013117;28;20026;-64
2023/07/03 12:37:14;;;;;;;7.80;2.50;;;;;;;;;;5013202;28;20077;-63
2023/07/03 12:39:42;;;;;;;7.00;2.40;;;;;;;;;;5012862;28;20069;-63
2023/07/03 12:42:10;;;;;;;9.93;2.70;;;;;;;;;;5013116;28;20477;-62
2023/07/03 12:44:36;;;;;;;6.93;2.72;;;;;;;;;;5013049;28;20030;-62
2023/07/03 12:47:11;;;;;;;7.03;2.22;;;;;;;;;;5012972;28;20041;-63
2023/07/03 12:49:55;;;;;;;11.00;2.75;;;;;;;;;;5012913;28;20026;-63
2023/07/03 12:52:26;;;;;;;10.07;2.75;;;;;;;;;;5013041;28;20026;-63
2023/07/03 12:54:53;;;;;;;7.97;2.40;;;;;;;;;;5006931;28;20376;-63
2023/07/03 12:57:20;;;;;;;8.05;2.80;;;;;;;;;;5010801;28;20427;-64
2023/07/03 12:59:51;;;;;;;6.50;2.42;;;;;;;;;;5012556;28;20041;-63
2023/07/03 13:02:26;;;;;;;6.25;2.78;;;;;;;;;;5012833;28;20433;-62
2023/07/03 13:05:03;;;;;;;8.20;2.85;;;;;;;;;;5012904;28;20061;-63
2023/07/03 13:07:29;;;;;;;10.45;2.53;;;;;;;;;;5012718;28;20121;-63
2023/07/03 13:09:57;;;;;;;6.35;2.13;;;;;;;;;;5012729;28;20108;-62
2023/07/03 13:12:24;;;;;;;10.25;2.45;;;;;;;;;;5012408;28;20030;-63
2023/07/03 13:15:00;;;;;;;8.55;2.63;;;;;;;;;;5012592;28;20030;-62
2023/07/03 13:17:30;;;;;;;6.53;2.55;;;;;;;;;;5012777;28;20074;-62
2023/07/03 13:20:24;;;;;;;12.07;2.67;;;;;;;;;;5012602;28;20543;-62
2023/07/03 13:22:55;;;;;;;12.85;2.38;;;;;;;;;;4988169;28;20034;-63
2023/07/03 13:25:34;;;;;;;5.80;2.35;;;;;;;;;;5012552;28;20068;-63
2023/07/03 13:28:06;;;;;;;11.82;2.38;;;;;;;;;;5012538;28;20026;-63
2023/07/03 13:30:35;;;;;;;7.53;2.53;;;;;;;;;;5012603;28;20499;-62
2023/07/03 13:33:10;;;;;;;9.70;2.33;;;;;;;;;;5012679;28;20434;-63
2023/07/03 13:35:43;;;;;;;9.07;2.75;;;;;;;;;;5012468;28;20443;-63
2023/07/03 13:38:18;;;;;;;9.55;2.53;;;;;;;;;;5012529;28;20399;-66
2023/07/03 13:40:45;;;;;;;8.90;2.80;;;;;;;;;;5012204;28;20471;-66
2023/07/03 13:43:10;;;;;;;7.53;2.30;;;;;;;;;;5011990;28;20053;-64
2023/07/03 13:45:36;;;;;;;9.45;2.45;;;;;;;;;;5012257;28;20026;-63
2023/07/03 13:48:01;;;;;;;10.48;2.63;;;;;;;;;;4993975;28;20475;-63
2023/07/03 13:50:28;;;;;;;11.38;2.63;;;;;;;;;;4992796;28;20026;-63
2023/07/03 13:52:54;;;;;;;7.45;2.13;;;;;;;;;;4992703;28;20034;-66
2023/07/03 13:55:20;;;;;;;8.80;2.45;;;;;;;;;;5002082;28;20356;-63
2023/07/03 13:57:45;;;;;;;8.52;2.47;;;;;;;;;;5012105;28;20077;-65
2023/07/03 14:00:11;;;;;;;9.60;2.53;;;;;;;;;;5012263;28;20029;-63
2023/07/03 14:02:37;;;;;;;7.88;2.55;;;;;;;;;;5012436;28;20414;-64
2023/07/03 14:05:03;;;;;;;9.25;2.65;;;;;;;;;;5012350;28;20418;-67
2023/07/03 14:07:28;;;;;;;12.05;2.88;;;;;;;;;;5012445;28;20038;-63
2023/07/03 14:09:55;;;;;;;6.22;2.22;;;;;;;;;;5012210;28;20034;-63
2023/07/03 14:12:20;;;;;;;9.00;2.40;;;;;;;;;;5011975;28;20053;-63
2023/07/03 14:14:48;;;;;;;6.72;2.63;;;;;;;;;;5012129;28;20069;-63
2023/07/03 14:17:14;;;;;;;9.02;2.35;;;;;;;;;;5012000;28;20442;-63
2023/07/03 14:19:39;;;;;;;9.07;2.70;;;;;;;;;;5011968;28;20061;-63
2023/07/03 14:22:05;;;;;;;6.30;2.38;;;;;;;;;;5012469;28;20087;-63
2023/07/03 14:24:30;;;;;;;8.75;2.30;;;;;;;;;;4994390;28;20026;-62
2023/07/03 14:26:56;;;;;;;8.10;2.40;;;;;;;;;;5011895;28;20057;-63
2023/07/03 14:29:21;;;;;;;7.00;2.15;;;;;;;;;;5012092;28;20030;-63
2023/07/03 14:31:47;;;;;;;8.02;2.25;;;;;;;;;;5011763;28;20549;-63
2023/07/03 14:34:12;;;;;;;8.82;2.38;;;;;;;;;;5012554;28;20112;-63
2023/07/03 14:36:37;;;;;;;10.07;2.35;;;;;;;;;;5015236;28;20026;-63
2023/07/03 14:39:03;;;;;;;8.65;2.15;;;;;;;;;;5015545;28;20033;-63
2023/07/03 14:41:28;;;;;;;8.23;2.33;;;;;;;;;;5014939;28;20030;-63
2023/07/03 14:43:54;;;;;;;9.90;2.20;;;;;;;;;;5015341;28;20534;-63
2023/07/03 14:46:19;;;;;;;7.95;2.38;;;;;;;;;;5010509;28;20076;-63
2023/07/03 14:48:44;;;;;;;7.63;2.67;;;;;;;;;;4995756;28;20056;-63
2023/07/03 14:51:10;;;;;;;10.25;2.38;;;;;;;;;;4995670;28;20033;-63
2023/07/03 14:53:35;;;;;;;10.55;2.17;;;;;;;;;;4995688;28;20018;-62